EGNS

Isle of Man Airport

Castletown, Isle of Man
METAR EGNS 190250Z 26017KT 230V290 9999 FEW013 SCT015 03/01 Q1003
Observed Flight Rules
Jan-19 @ 02:50 UTC (60 minutes ago) Visual Flight Rules
Wind Visibility Clouds
260° at 17 knots 10,000+ meters
  • Few at 1,300' AGL
  • Scattered at 1,500' AGL
Temperatures Readings
Current 3°C / 37°F
Dewpoint 1°C / 34°F
Humidity 87%
Altimeter 29.62" Hg
Pressure 1003 hPa
Elevation 17
METAR EGNS 190250Z 26017KT 230V290 9999 FEW013 SCT015 03/01 Q1003
Observed Flight Rules
Jan-19 @ 02:50 UTC
(60 minutes ago)
VFR
Wind Visibility
260° at 17 knots 10,000+ meters
Clouds
  • Few at 1,300' AGL
  • Scattered at 1,500' AGL
Temperature Dewpoint
3°C / 37°F 1°C / 34°F
Humidity Altimeter Pressure
87% 29.62" Hg 1003 hPa